Time;durP1;ratioP1;P1;durP2;ratioP2;P2;SDS_P1;SDS_P2;PMS_P1;PMS_P2;Temp;Humidity;BMP_temperature;BMP_pressure;BME280_temperature;BME280_humidity;BME280_pressure;Samples;Min_cycle;Max_cycle;Signal;HPM_P1;HPM_P2
2023/10/03 00:01:31;;;;;;;25.10;14.37;;;;;;;17.93;86.79;155970.38;4999284;28;20480;-80
2023/10/03 00:03:59;;;;;;;22.20;14.17;;;;;;;17.92;86.91;155966.50;4998510;28;20435;-79
2023/10/03 00:06:25;;;;;;;23.50;14.00;;;;;;;17.88;86.99;155957.34;4984929;28;20468;-79
2023/10/03 00:08:54;;;;;;;24.30;14.90;;;;;;;17.86;87.35;155952.16;5001942;28;20484;-79
2023/10/03 00:11:22;;;;;;;20.57;14.00;;;;;;;17.85;87.08;155948.22;5008824;28;20787;-79
2023/10/03 00:13:49;;;;;;;21.87;14.47;;;;;;;17.81;87.22;155939.16;5009246;28;20644;-80
2023/10/03 00:16:17;;;;;;;20.67;12.80;;;;;;;17.79;87.22;155933.91;5007148;28;20442;-79
2023/10/03 00:18:44;;;;;;;20.53;13.77;;;;;;;17.76;87.38;155926.13;5016711;28;20453;-79
2023/10/03 00:21:11;;;;;;;21.57;14.03;;;;;;;17.69;87.91;155907.88;5004575;28;20515;-79
2023/10/03 00:23:38;;;;;;;20.87;12.90;;;;;;;17.64;88.19;155896.16;4993871;28;20532;-79
2023/10/03 00:26:15;;;;;;;22.40;14.23;;;;;;;17.62;88.39;155889.66;4987726;28;20827;-79
2023/10/03 00:28:42;;;;;;;19.73;13.43;;;;;;;17.61;88.54;155887.03;4992922;28;20492;-79
2023/10/03 00:31:09;;;;;;;19.10;12.73;;;;;;;17.60;88.43;155884.47;4974972;28;20483;-79
2023/10/03 00:33:36;;;;;;;20.93;13.27;;;;;;;17.61;88.44;155887.03;5008257;28;21052;-79
2023/10/03 00:36:03;;;;;;;19.40;13.67;;;;;;;17.59;88.59;155881.84;4990459;28;20506;-80
2023/10/03 00:38:30;;;;;;;25.33;15.70;;;;;;;17.55;88.84;155871.47;5007241;28;20795;-79
2023/10/03 00:40:58;;;;;;;20.50;14.40;;;;;;;17.53;88.67;155866.22;4990614;28;20453;-80
2023/10/03 00:43:25;;;;;;;18.83;12.47;;;;;;;17.53;89.38;155866.22;5011383;28;20461;-79
2023/10/03 00:45:52;;;;;;;20.37;13.63;;;;;;;17.53;90.33;155867.53;5007005;28;20461;-79
2023/10/03 00:48:20;;;;;;;20.63;12.80;;;;;;;17.54;90.06;155868.84;5008929;28;20498;-79
2023/10/03 00:50:48;;;;;;;20.90;13.60;;;;;;;17.57;90.34;155876.66;4992039;28;20448;-79
2023/10/03 00:53:15;;;;;;;20.17;13.17;;;;;;;17.61;90.23;155887.03;5020109;28;20461;-79
2023/10/03 00:55:44;;;;;;;18.77;11.60;;;;;;;17.64;90.20;155896.16;4989250;28;20463;-79
2023/10/03 00:58:23;;;;;;;16.77;11.20;;;;;;;17.66;90.11;155900.06;5008244;28;20459;-80
2023/10/03 01:00:53;;;;;;;18.83;11.50;;;;;;;17.70;90.68;155910.50;5000215;28;20444;-79
2023/10/03 01:03:28;;;;;;;17.43;11.77;;;;;;;17.73;90.27;155918.31;4994833;28;20453;-80
2023/10/03 01:05:57;;;;;;;15.53;11.37;;;;;;;17.74;90.07;155919.63;4981981;28;20473;-80
2023/10/03 01:08:24;;;;;;;15.83;11.17;;;;;;;17.72;90.03;155914.38;4975802;28;20477;-80
2023/10/03 01:10:52;;;;;;;16.27;10.80;;;;;;;17.73;90.55;155918.31;5013602;28;20874;-80
2023/10/03 01:13:20;;;;;;;17.73;11.30;;;;;;;17.75;90.59;155922.19;5005450;28;20543;-79
2023/10/03 01:15:49;;;;;;;18.80;12.20;;;;;;;17.75;90.59;155923.50;4986356;28;20441;-80
2023/10/03 01:18:20;;;;;;;19.80;12.50;;;;;;;17.74;90.43;155920.88;5005691;28;20445;-79
2023/10/03 01:20:55;;;;;;;19.77;12.07;;;;;;;17.76;90.81;155926.13;4993025;28;20472;-79
2023/10/03 01:23:26;;;;;;;18.30;12.03;;;;;;;17.76;90.93;155926.13;5016158;28;20531;-79
2023/10/03 01:25:53;;;;;;;17.90;11.87;;;;;;;17.77;90.80;155927.38;4995645;28;20475;-79
2023/10/03 01:28:20;;;;;;;16.33;11.37;;;;;;;17.77;91.21;155928.69;5007281;28;20479;-79
2023/10/03 01:30:51;;;;;;;15.03;10.53;;;;;;;17.78;91.37;155931.31;4993935;28;20456;-79
2023/10/03 01:33:17;;;;;;;15.73;11.50;;;;;;;17.78;91.11;155931.31;5002890;28;20968;-79
2023/10/03 01:35:44;;;;;;;17.80;12.50;;;;;;;17.77;91.14;155928.69;4989784;28;20892;-79
2023/10/03 01:38:14;;;;;;;17.10;11.33;;;;;;;17.78;90.86;155931.31;5004084;28;20560;-79
2023/10/03 01:40:42;;;;;;;15.97;12.00;;;;;;;17.78;91.26;155930.00;4982616;28;20448;-79
2023/10/03 01:43:09;;;;;;;17.20;12.17;;;;;;;17.76;91.22;155926.13;4992432;28;20452;-80
2023/10/03 01:45:35;;;;;;;15.73;11.23;;;;;;;17.74;91.08;155920.88;4997585;28;20455;-79
2023/10/03 01:48:05;;;;;;;16.60;11.50;;;;;;;17.74;90.77;155920.88;4985978;28;20452;-80
2023/10/03 01:50:33;;;;;;;18.57;12.50;;;;;;;17.73;91.04;155918.31;5006868;28;20447;-80
2023/10/03 01:53:00;;;;;;;18.77;11.93;;;;;;;17.70;91.34;155910.50;4992710;28;20456;-79
2023/10/03 01:55:28;;;;;;;19.33;12.33;;;;;;;17.67;91.00;155902.69;4974160;28;20440;-79
2023/10/03 01:57:58;;;;;;;16.67;10.70;;;;;;;17.61;90.94;155888.34;4986854;28;20932;-80
2023/10/03 02:00:26;;;;;;;15.27;10.83;;;;;;;17.58;90.97;155880.53;5007512;28;20492;-79
2023/10/03 02:02:53;;;;;;;19.00;11.77;;;;;;;17.58;91.45;155880.53;5018061;28;20463;-79
2023/10/03 02:05:21;;;;;;;16.93;11.07;;;;;;;17.54;91.37;155868.84;5008430;28;20456;-80
2023/10/03 02:07:48;;;;;;;18.37;12.57;;;;;;;17.49;91.29;155857.09;4978778;28;20980;-79
2023/10/03 02:10:15;;;;;;;15.83;11.03;;;;;;;17.48;91.79;155853.16;4999366;28;20979;-80
2023/10/03 02:12:48;;;;;;;17.50;11.17;;;;;;;17.48;91.71;155853.16;5011911;28;20492;-80
2023/10/03 02:15:20;;;;;;;16.57;11.63;;;;;;;17.48;91.70;155853.16;4987300;28;21203;-79
2023/10/03 02:17:49;;;;;;;17.20;11.27;;;;;;;17.46;91.62;155847.94;5003303;28;20449;-79
2023/10/03 02:20:20;;;;;;;16.90;12.40;;;;;;;17.43;91.69;155840.13;5002842;28;20452;-79
2023/10/03 02:22:53;;;;;;;18.30;11.30;;;;;;;17.38;92.06;155828.44;4994918;28;20916;-80
2023/10/03 02:25:22;;;;;;;16.53;11.47;;;;;;;17.35;92.31;155820.63;5001220;28;20825;-79
2023/10/03 02:27:49;;;;;;;16.97;12.30;;;;;;;17.33;92.27;155814.13;4989016;28;20487;-79
2023/10/03 02:30:23;;;;;;;18.03;12.17;;;;;;;17.30;92.74;155806.28;4999963;28;20976;-79
2023/10/03 02:32:52;;;;;;;17.57;13.40;;;;;;;17.26;93.04;155795.91;5004922;28;20477;-79
2023/10/03 02:35:19;;;;;;;16.40;11.03;;;;;;;17.24;93.31;155790.66;4999822;28;20451;-79
2023/10/03 02:37:47;;;;;;;17.63;11.60;;;;;;;17.20;93.31;155780.28;4980650;28;20976;-79
2023/10/03 02:40:21;;;;;;;20.00;12.53;;;;;;;17.19;93.64;155777.66;4989295;28;20432;-79
2023/10/03 02:42:48;;;;;;;15.97;12.00;;;;;;;17.18;93.80;155776.41;4986071;28;20493;-79
2023/10/03 02:45:17;;;;;;;17.53;10.87;;;;;;;17.16;93.59;155769.84;5008229;28;20459;-79
2023/10/03 02:47:46;;;;;;;16.63;11.20;;;;;;;17.17;93.87;155772.47;4988830;28;20441;-79
2023/10/03 02:50:15;;;;;;;16.60;11.97;;;;;;;17.15;93.79;155767.28;4989021;28;20473;-79
2023/10/03 02:52:45;;;;;;;16.73;12.13;;;;;;;17.14;93.82;155765.97;4972546;28;20461;-79
2023/10/03 02:55:13;;;;;;;20.20;11.70;;;;;;;17.16;93.38;155769.84;4985922;28;21109;-79
2023/10/03 02:57:41;;;;;;;17.07;11.80;;;;;;;17.14;93.03;155765.97;4986321;28;20461;-79
2023/10/03 03:00:12;;;;;;;17.47;12.03;;;;;;;17.13;93.63;155762.06;5004171;28;20824;-79
2023/10/03 03:02:42;;;;;;;17.13;10.97;;;;;;;17.10;93.76;155754.25;4979824;28;20490;-79
2023/10/03 03:05:15;;;;;;;17.17;11.70;;;;;;;17.09;93.94;155751.63;4972341;28;20522;-79
2023/10/03 03:07:44;;;;;;;20.63;12.87;;;;;;;17.08;94.15;155750.34;4986298;28;20439;-79
2023/10/03 03:10:13;;;;;;;15.83;11.80;;;;;;;17.09;94.17;155752.94;4986207;28;20480;-79
2023/10/03 03:12:41;;;;;;;16.77;11.00;;;;;;;17.09;93.88;155751.63;4988171;28;20752;-79
2023/10/03 03:15:08;;;;;;;15.90;10.70;;;;;;;17.08;94.04;155749.06;5007042;28;20452;-79
2023/10/03 03:17:34;;;;;;;20.00;11.33;;;;;;;17.04;93.80;155741.25;5005465;28;21005;-79
2023/10/03 03:20:18;;;;;;;17.47;12.27;;;;;;;17.04;93.90;155741.25;4997601;28;20927;-79
2023/10/03 03:22:48;;;;;;;15.37;11.43;;;;;;;17.04;93.64;155741.25;5004704;28;20591;-80
2023/10/03 03:25:21;;;;;;;17.20;10.27;;;;;;;17.03;93.43;155738.63;4988336;28;20819;-79
2023/10/03 03:27:48;;;;;;;17.30;11.20;;;;;;;17.02;93.55;155736.00;4991901;28;20444;-79
2023/10/03 03:32:59;;;;;;;16.30;10.90;;;;;;;17.00;93.36;155729.50;5019547;28;20479;-79
2023/10/03 03:35:25;;;;;;;18.10;11.37;;;;;;;17.01;93.35;155733.44;5007581;28;20734;-79
2023/10/03 03:37:56;;;;;;;16.13;10.70;;;;;;;17.03;93.18;155738.63;5007656;28;20498;-80
2023/10/03 03:40:29;;;;;;;15.37;10.37;;;;;;;17.04;93.06;155741.25;5004172;28;20429;-80
2023/10/03 03:42:58;;;;;;;16.20;10.73;;;;;;;17.05;92.75;155742.53;5008295;28;20535;-79
2023/10/03 03:45:25;;;;;;;12.83;8.90;;;;;;;17.04;92.63;155739.94;5013852;28;20452;-79
2023/10/03 03:47:52;;;;;;;15.30;11.70;;;;;;;17.02;92.67;155736.00;5004121;28;20464;-80
2023/10/03 03:50:20;;;;;;;15.20;10.73;;;;;;;17.04;92.42;155741.25;4998854;28;20832;-79
2023/10/03 03:52:48;;;;;;;13.70;9.90;;;;;;;17.04;92.11;155741.25;4991669;28;20483;-79
2023/10/03 03:55:17;;;;;;;13.40;10.30;;;;;;;17.04;92.19;155741.25;5014234;28;20487;-79
2023/10/03 03:57:45;;;;;;;13.60;9.67;;;;;;;17.07;91.95;155747.75;4993521;28;20460;-79
2023/10/03 04:00:14;;;;;;;12.87;10.00;;;;;;;17.09;91.90;155751.63;4990791;28;20432;-79
2023/10/03 04:02:41;;;;;;;12.67;8.60;;;;;;;17.08;91.75;155749.06;4974599;28;20518;-79
2023/10/03 04:05:11;;;;;;;13.63;9.17;;;;;;;17.08;91.36;155749.06;5009344;28;20464;-79
2023/10/03 04:07:39;;;;;;;14.57;9.70;;;;;;;17.09;91.46;155751.63;5008376;28;20464;-79
2023/10/03 04:10:08;;;;;;;14.07;9.33;;;;;;;17.09;91.13;155752.94;4974966;28;20480;-79
2023/10/03 04:12:41;;;;;;;16.17;9.87;;;;;;;17.13;90.99;155762.06;5007084;28;20453;-79
2023/10/03 04:15:11;;;;;;;13.33;8.53;;;;;;;17.14;90.81;155764.66;5002814;28;20449;-79
2023/10/03 04:17:37;;;;;;;14.10;10.67;;;;;;;17.14;90.66;155765.97;5003685;28;20449;-79
2023/10/03 04:20:13;;;;;;;14.10;9.60;;;;;;;17.17;90.23;155772.47;5005390;28;20443;-79
2023/10/03 04:22:41;;;;;;;13.33;8.27;;;;;;;17.19;90.21;155778.97;5007635;28;20448;-80
2023/10/03 04:25:13;;;;;;;11.47;8.43;;;;;;;17.21;89.77;155784.16;5001899;28;20512;-79
2023/10/03 04:27:42;;;;;;;12.00;9.03;;;;;;;17.25;89.71;155794.59;4985981;28;20456;-80
2023/10/03 04:30:10;;;;;;;11.30;9.07;;;;;;;17.27;89.22;155798.47;5005421;28;20473;-79
2023/10/03 04:32:37;;;;;;;13.07;9.57;;;;;;;17.27;89.30;155798.47;5004775;28;20595;-79
2023/10/03 04:35:05;;;;;;;10.70;8.10;;;;;;;17.28;89.03;155801.09;5008748;28;20445;-80
2023/10/03 04:37:31;;;;;;;10.87;7.97;;;;;;;17.28;88.88;155802.41;5005619;28;20981;-79
2023/10/03 04:39:58;;;;;;;9.93;8.50;;;;;;;17.32;88.41;155811.50;5007640;28;21043;-80
2023/10/03 04:42:24;;;;;;;13.20;9.33;;;;;;;17.34;88.22;155816.72;5003217;28;20917;-79
2023/10/03 04:44:53;;;;;;;12.67;9.23;;;;;;;17.36;88.02;155821.94;5008737;28;20445;-80
2023/10/03 04:47:22;;;;;;;13.03;8.97;;;;;;;17.39;87.65;155829.75;5005181;28;20464;-79
2023/10/03 04:49:48;;;;;;;14.63;9.33;;;;;;;17.38;87.69;155828.44;5008182;28;20472;-80
2023/10/03 04:52:15;;;;;;;12.70;8.53;;;;;;;17.37;87.53;155825.81;4999653;28;20531;-80
2023/10/03 04:54:41;;;;;;;12.40;8.77;;;;;;;17.38;87.39;155827.13;5000972;28;20457;-79
2023/10/03 04:57:08;;;;;;;12.80;9.27;;;;;;;17.39;87.14;155829.75;5005842;28;20440;-79
2023/10/03 04:59:34;;;;;;;11.47;8.77;;;;;;;17.39;87.11;155829.75;5004279;28;20436;-79
2023/10/03 05:02:03;;;;;;;10.53;8.47;;;;;;;17.37;86.94;155825.81;5007098;28;20464;-80
2023/10/03 05:04:29;;;;;;;11.40;8.60;;;;;;;17.37;86.79;155824.50;4997386;28;21368;-79
2023/10/03 05:06:56;;;;;;;12.47;9.23;;;;;;;17.38;86.30;155827.13;4994718;28;20457;-80
2023/10/03 05:09:22;;;;;;;12.43;9.00;;;;;;;17.40;86.31;155832.31;4994902;28;20975;-80
2023/10/03 05:11:50;;;;;;;11.70;8.70;;;;;;;17.40;86.19;155832.31;4994378;28;21002;-79
2023/10/03 05:14:17;;;;;;;9.67;7.27;;;;;;;17.41;86.27;155836.25;4993315;28;20560;-79
2023/10/03 05:16:44;;;;;;;11.60;8.93;;;;;;;17.41;86.10;155834.94;4997228;28;20457;-79
2023/10/03 05:19:12;;;;;;;11.73;8.40;;;;;;;17.42;85.60;155838.81;4995143;28;20861;-80
2023/10/03 05:21:39;;;;;;;10.80;7.90;;;;;;;17.43;85.77;155841.44;4993520;28;20456;-79
2023/10/03 05:24:09;;;;;;;12.43;8.73;;;;;;;17.41;85.40;155834.94;4994452;28;20535;-80
2023/10/03 05:26:36;;;;;;;11.97;7.47;;;;;;;17.41;85.73;155834.94;4998377;28;20582;-80
2023/10/03 05:29:02;;;;;;;12.77;8.53;;;;;;;17.41;85.29;155834.94;4995850;28;20460;-79
2023/10/03 05:31:29;;;;;;;13.73;8.83;;;;;;;17.39;85.36;155829.75;4994504;28;20593;-79
2023/10/03 05:33:56;;;;;;;10.33;7.83;;;;;;;17.38;85.16;155828.44;4995592;28;20531;-80
2023/10/03 05:36:24;;;;;;;11.37;8.27;;;;;;;17.40;84.59;155832.31;4992356;28;20463;-80
2023/10/03 05:38:50;;;;;;;13.03;8.27;;;;;;;17.41;84.74;155834.94;4978853;28;20473;-78
2023/10/03 05:41:20;;;;;;;11.50;7.73;;;;;;;17.42;84.57;155837.56;4993792;28;20463;-79
2023/10/03 05:43:47;;;;;;;9.97;8.30;;;;;;;17.41;84.42;155834.94;4994581;28;20481;-79
2023/10/03 05:46:13;;;;;;;10.50;7.73;;;;;;;17.43;84.41;155840.13;4994458;28;20979;-80
2023/10/03 05:48:40;;;;;;;11.60;7.67;;;;;;;17.42;84.22;155838.81;4996483;28;20453;-81
2023/10/03 05:51:06;;;;;;;11.00;7.40;;;;;;;17.46;84.25;155847.94;4999372;28;20481;-80
2023/10/03 05:53:34;;;;;;;10.43;7.33;;;;;;;17.47;84.29;155851.84;4994377;28;21332;-81
2023/10/03 05:56:01;;;;;;;12.27;7.67;;;;;;;17.50;83.90;155858.38;4995426;28;20488;-80
2023/10/03 05:58:27;;;;;;;8.30;7.13;;;;;;;17.55;83.53;155871.47;4995865;28;20519;-79
2023/10/03 06:00:54;;;;;;;8.97;7.07;;;;;;;17.55;83.11;155871.47;4992150;28;20789;-80
2023/10/03 06:03:21;;;;;;;12.03;7.30;;;;;;;17.58;83.47;155879.22;4991969;28;20452;-79
2023/10/03 06:05:47;;;;;;;12.07;7.67;;;;;;;17.62;82.50;155889.66;4995887;28;20453;-81
2023/10/03 06:08:37;;;;;;;9.50;7.60;;;;;;;17.65;82.31;155897.47;4993581;28;20990;-80
2023/10/03 06:11:25;;;;;;;9.10;7.17;;;;;;;17.74;81.94;155920.88;4978306;28;20897;-79
2023/10/03 06:13:51;;;;;;;12.17;8.30;;;;;;;17.90;81.23;155962.56;4980998;28;20457;-79
2023/10/03 06:16:18;;;;;;;10.23;7.03;;;;;;;18.05;80.92;156001.66;4996877;28;20987;-78
2023/10/03 06:18:44;;;;;;;11.23;7.60;;;;;;;18.27;80.02;156057.59;4995081;28;20459;-79
2023/10/03 06:21:12;;;;;;;11.47;8.00;;;;;;;18.50;78.88;156116.31;4993303;28;20461;-79
2023/10/03 06:23:40;;;;;;;14.00;8.50;;;;;;;18.61;77.46;156146.22;4991263;28;20445;-80
2023/10/03 06:26:07;;;;;;;10.47;8.07;;;;;;;18.72;76.88;156173.59;4994946;28;20516;-79
2023/10/03 06:28:33;;;;;;;9.87;6.70;;;;;;;18.91;76.21;156221.78;4993832;28;20445;-80
2023/10/03 06:31:00;;;;;;;10.77;7.77;;;;;;;19.15;75.20;156285.66;4976629;28;20580;-79
2023/10/03 06:33:30;;;;;;;9.90;7.03;;;;;;;19.24;74.54;156307.84;4991778;28;21201;-80
2023/10/03 06:35:57;;;;;;;8.87;6.73;;;;;;;19.32;73.65;156328.69;4995783;28;20460;-80
2023/10/03 06:38:23;;;;;;;9.20;7.50;;;;;;;19.51;73.58;156376.97;4994275;28;20535;-80
2023/10/03 06:40:51;;;;;;;9.30;7.33;;;;;;;19.76;73.18;156443.44;4990604;28;20540;-80
2023/10/03 06:43:18;;;;;;;10.40;7.70;;;;;;;20.05;71.98;156517.75;4996199;28;20914;-80
2023/10/03 06:45:45;;;;;;;10.97;7.67;;;;;;;20.35;70.68;156596.06;4994960;28;20467;-80
2023/10/03 06:48:11;;;;;;;9.03;7.37;;;;;;;20.60;69.62;156659.94;4993709;28;20447;-80
2023/10/03 06:50:38;;;;;;;11.40;7.20;;;;;;;20.86;68.58;156727.84;4996097;28;20546;-80
2023/10/03 06:53:05;;;;;;;9.70;7.53;;;;;;;21.16;67.59;156804.84;4993272;28;20652;-80
2023/10/03 06:55:38;;;;;;;9.30;7.30;;;;;;;21.45;66.67;156880.53;5012173;28;20441;-80
2023/10/03 06:58:06;;;;;;;9.73;7.30;;;;;;;21.64;64.52;156930.16;4995388;28;20463;-81
2023/10/03 07:00:33;;;;;;;10.30;7.70;;;;;;;21.87;63.83;156987.69;4995304;28;20445;-81
2023/10/03 07:02:59;;;;;;;12.17;8.13;;;;;;;22.08;63.46;157042.53;4993515;28;20550;-80
2023/10/03 07:05:26;;;;;;;9.50;7.57;;;;;;;22.35;63.61;157114.31;4996642;28;20448;-80
2023/10/03 07:07:53;;;;;;;8.80;7.00;;;;;;;22.59;62.56;157175.72;5004041;28;20460;-81
2023/10/03 07:10:21;;;;;;;10.37;7.77;;;;;;;22.81;61.71;157233.25;4997256;28;20472;-81
2023/10/03 07:12:48;;;;;;;13.03;8.73;;;;;;;23.04;60.91;157292.03;4999366;28;20456;-81
2023/10/03 07:15:16;;;;;;;11.00;8.30;;;;;;;23.21;60.07;157336.50;4997859;28;20531;-81
2023/10/03 07:17:42;;;;;;;11.20;8.13;;;;;;;23.42;60.02;157390.13;5000066;28;20549;-81
2023/10/03 07:20:10;;;;;;;8.53;7.30;;;;;;;23.61;59.05;157439.81;4997345;28;20461;-81
2023/10/03 07:22:38;;;;;;;12.13;7.70;;;;;;;23.85;58.20;157502.56;4998783;28;20475;-80
2023/10/03 07:25:07;;;;;;;9.07;7.03;;;;;;;24.05;57.54;157554.84;4999528;28;20459;-81
2023/10/03 07:27:34;;;;;;;11.60;7.73;;;;;;;24.28;56.36;157612.44;4998285;28;20449;-81
2023/10/03 07:30:02;;;;;;;9.30;7.70;;;;;;;24.48;56.74;157666.06;4998600;28;21006;-81
2023/10/03 07:32:32;;;;;;;11.30;7.63;;;;;;;24.62;55.22;157701.38;5000108;28;20499;-80
2023/10/03 07:34:59;;;;;;;8.33;7.00;;;;;;;24.84;54.59;157758.97;5001657;28;20456;-81
2023/10/03 07:37:25;;;;;;;8.90;7.20;;;;;;;25.01;54.04;157803.47;4981397;28;20716;-81
2023/10/03 07:39:52;;;;;;;9.37;6.83;;;;;;;25.09;53.83;157823.09;4980991;28;20464;-80
2023/10/03 07:42:21;;;;;;;10.80;7.30;;;;;;;25.14;52.58;157836.19;4993945;28;20975;-81
2023/10/03 07:44:51;;;;;;;9.20;6.40;;;;;;;25.21;51.85;157855.81;4994783;28;20463;-80
2023/10/03 07:47:18;;;;;;;7.67;6.33;;;;;;;25.40;51.54;157905.53;4995217;28;20465;-80
2023/10/03 07:49:48;;;;;;;9.03;7.00;;;;;;;25.61;51.12;157957.94;5000628;28;20452;-80
2023/10/03 07:52:17;;;;;;;8.87;6.60;;;;;;;25.79;50.64;158005.03;4995869;28;20816;-80
2023/10/03 07:54:49;;;;;;;7.30;6.40;;;;;;;25.79;50.75;158006.38;4998298;28;20467;-81
2023/10/03 07:57:16;;;;;;;9.57;6.50;;;;;;;25.89;50.14;158031.25;4996970;28;20989;-81
2023/10/03 07:59:43;;;;;;;8.00;6.53;;;;;;;25.95;49.90;158046.94;4995963;28;20519;-80
2023/10/03 08:02:11;;;;;;;7.17;6.43;;;;;;;25.99;50.41;158058.75;4996596;28;20570;-81
2023/10/03 08:04:42;;;;;;;9.00;6.57;;;;;;;25.99;49.75;158058.75;4995558;28;20453;-81
2023/10/03 08:07:14;;;;;;;7.70;6.47;;;;;;;25.93;51.29;158043.03;4995783;28;20960;-81
2023/10/03 08:09:46;;;;;;;7.97;6.20;;;;;;;25.81;51.36;158010.31;4994892;28;21016;-80
2023/10/03 08:12:13;;;;;;;7.10;5.33;;;;;;;25.60;51.01;157955.34;4997054;28;20452;-81
2023/10/03 08:14:42;;;;;;;7.17;5.60;;;;;;;25.48;50.57;157923.91;4984773;28;20453;-80
2023/10/03 08:17:09;;;;;;;6.87;5.97;;;;;;;25.40;50.96;157905.53;4994655;28;20815;-80
2023/10/03 08:19:40;;;;;;;7.00;5.70;;;;;;;25.33;50.08;157887.22;4999637;28;20551;-80
2023/10/03 08:22:12;;;;;;;7.37;6.30;;;;;;;25.33;50.63;157885.91;4977103;28;20459;-81
2023/10/03 08:25:05;;;;;;;6.10;5.60;;;;;;;25.30;51.91;157879.38;4996959;28;20445;-80
2023/10/03 08:27:32;;;;;;;7.53;5.77;;;;;;;25.22;50.85;157857.13;4997533;28;20456;-80
2023/10/03 08:30:00;;;;;;;6.37;5.40;;;;;;;25.27;51.27;157871.53;4996741;28;20489;-81
2023/10/03 08:32:27;;;;;;;6.17;5.50;;;;;;;25.29;51.13;157875.44;4980806;28;20500;-80
2023/10/03 08:34:57;;;;;;;7.07;5.67;;;;;;;25.33;50.96;157887.22;4976272;28;20476;-81
2023/10/03 08:37:24;;;;;;;7.20;6.00;;;;;;;25.36;50.50;157895.03;4977751;28;20463;-80
2023/10/03 08:39:52;;;;;;;6.27;5.67;;;;;;;25.42;50.30;157910.75;4976715;28;20560;-81
2023/10/03 08:42:21;;;;;;;6.60;6.00;;;;;;;25.51;49.94;157931.75;4976537;28;20460;-80
2023/10/03 08:44:52;;;;;;;6.60;5.50;;;;;;;25.49;49.89;157927.84;4977709;28;20485;-80
2023/10/03 08:47:28;;;;;;;5.70;5.03;;;;;;;25.48;51.03;157925.22;4978700;28;20453;-80
2023/10/03 08:50:01;;;;;;;6.00;5.43;;;;;;;25.45;50.72;157917.31;4975376;28;20456;-80
2023/10/03 08:52:39;;;;;;;8.93;5.53;;;;;;;25.41;50.32;157908.19;4976950;28;20458;-80
2023/10/03 08:55:09;;;;;;;6.10;5.20;;;;;;;25.33;51.49;157887.22;4977071;28;20452;-81
2023/10/03 08:57:37;;;;;;;5.93;5.33;;;;;;;25.23;52.25;157861.03;4980987;28;20658;-81
2023/10/03 09:00:05;;;;;;;6.47;5.77;;;;;;;25.27;52.66;157870.19;4975946;28;20466;-81
2023/10/03 09:02:40;;;;;;;6.77;5.47;;;;;;;25.29;52.14;157876.75;4973219;28;20458;-80
2023/10/03 09:05:15;;;;;;;7.33;6.17;;;;;;;25.27;51.80;157871.53;4979904;28;20473;-80
2023/10/03 09:07:45;;;;;;;6.03;5.33;;;;;;;25.29;52.03;157876.75;4975138;28;20507;-80
2023/10/03 09:10:22;;;;;;;6.30;5.53;;;;;;;25.22;52.47;157858.44;4976037;28;20490;-80
2023/10/03 09:12:50;;;;;;;6.73;5.63;;;;;;;25.18;52.04;157847.94;4974032;28;20486;-80
2023/10/03 09:15:18;;;;;;;6.47;5.77;;;;;;;25.19;52.76;157849.25;4979537;28;20879;-80
2023/10/03 09:17:49;;;;;;;6.17;5.57;;;;;;;25.17;52.35;157845.34;4974019;28;20488;-80
2023/10/03 09:20:20;;;;;;;7.10;5.67;;;;;;;25.16;52.32;157842.72;4972641;28;20456;-80
2023/10/03 09:22:47;;;;;;;5.90;5.27;;;;;;;25.12;53.55;157832.28;4976788;28;20922;-79
2023/10/03 09:25:16;;;;;;;6.60;5.30;;;;;;;25.14;53.23;157837.50;4976949;28;20553;-80
2023/10/03 09:27:44;;;;;;;7.67;5.90;;;;;;;25.24;53.88;157862.34;4974745;28;20505;-80
2023/10/03 09:30:22;;;;;;;8.17;5.67;;;;;;;25.30;53.32;157878.06;4975699;28;20470;-80
2023/10/03 09:36:00;;;;;;;6.07;5.47;;;;;;;25.33;53.29;157887.22;4976671;28;20483;-79
2023/10/03 09:38:44;;;;;;;6.67;5.90;;;;;;;25.33;52.79;157887.22;4976994;28;20442;-81
2023/10/03 09:41:17;;;;;;;6.50;4.97;;;;;;;25.28;53.25;157872.84;4975247;28;21056;-81
2023/10/03 09:43:49;;;;;;;7.50;5.70;;;;;;;25.30;53.26;157878.06;4974873;28;20552;-81
2023/10/03 09:46:23;;;;;;;8.30;5.60;;;;;;;25.33;54.21;157885.91;4976652;28;20952;-81
2023/10/03 09:48:53;;;;;;;9.50;5.50;;;;;;;25.33;54.21;157887.22;4975612;28;20487;-81
2023/10/03 09:51:24;;;;;;;5.70;5.10;;;;;;;25.39;53.34;157902.91;4979353;28;20485;-81
2023/10/03 09:53:51;;;;;;;6.00;5.40;;;;;;;25.44;54.43;157914.72;4975517;28;20458;-81
2023/10/03 09:56:20;;;;;;;7.00;4.87;;;;;;;25.49;53.85;157926.53;4977619;28;20555;-82
2023/10/03 09:58:48;;;;;;;6.03;5.43;;;;;;;25.53;54.20;157936.97;4976715;28;20454;-81
2023/10/03 10:01:18;;;;;;;7.30;4.90;;;;;;;25.51;53.88;157931.75;4975540;28;20810;-81
2023/10/03 10:03:46;;;;;;;6.03;5.43;;;;;;;25.56;53.82;157946.16;4959074;28;20462;-81
2023/10/03 10:06:24;;;;;;;6.27;5.67;;;;;;;25.64;54.50;157967.09;4973915;28;20492;-81
2023/10/03 10:08:58;;;;;;;6.43;5.80;;;;;;;25.70;54.60;157982.81;4962129;28;20727;-81
2023/10/03 10:11:30;;;;;;;6.73;5.40;;;;;;;25.76;54.32;157997.22;4976895;28;20481;-82
2023/10/03 10:14:09;;;;;;;5.87;5.27;;;;;;;25.81;53.25;158010.31;4977484;28;20533;-81
2023/10/03 10:16:36;;;;;;;6.10;5.50;;;;;;;25.83;53.24;158016.88;4972721;28;20528;-82
2023/10/03 10:19:04;;;;;;;8.13;5.37;;;;;;;25.87;53.25;158026.00;4976178;28;20464;-81
2023/10/03 10:21:32;;;;;;;5.57;5.07;;;;;;;25.82;53.40;158012.91;4975757;28;20497;-81
2023/10/03 10:24:36;;;;;;;5.90;5.30;;;;;;;25.84;54.15;158018.19;4958995;28;20460;-81
2023/10/03 10:27:19;;;;;;;5.93;5.30;;;;;;;25.91;53.25;158037.81;4957253;28;20519;-81
2023/10/03 10:30:13;;;;;;;6.37;5.77;;;;;;;25.95;53.97;158046.94;4980932;28;20555;-82
2023/10/03 10:33:22;;;;;;;6.80;5.63;;;;;;;25.94;54.04;158044.34;4975012;28;20516;-81
2023/10/03 10:35:54;;;;;;;5.63;5.00;;;;;;;25.93;54.44;158041.72;4972106;28;20461;-82
2023/10/03 10:38:21;;;;;;;6.43;5.07;;;;;;;25.94;54.21;158044.34;4975508;28;20484;-80
2023/10/03 10:41:26;;;;;;;6.10;5.50;;;;;;;25.93;55.02;158041.72;4972264;28;20454;-80
2023/10/03 10:44:13;;;;;;;9.43;6.20;;;;;;;25.95;54.92;158046.94;4976555;28;20508;-82
2023/10/03 10:46:44;;;;;;;5.23;4.60;;;;;;;25.97;54.41;158052.22;4962390;28;20816;-82
2023/10/03 10:49:51;;;;;;;7.30;6.30;;;;;;;25.99;53.84;158057.44;4979719;28;20560;-81
2023/10/03 10:52:19;;;;;;;6.23;5.63;;;;;;;26.02;53.79;158065.31;4977825;28;20478;-82
2023/10/03 10:54:45;;;;;;;5.77;5.17;;;;;;;26.06;54.25;158075.75;4980459;28;20475;-82
2023/10/03 10:57:14;;;;;;;6.37;5.57;;;;;;;26.05;53.29;158073.16;4975809;28;20458;-82
2023/10/03 10:59:43;;;;;;;6.30;5.40;;;;;;;26.06;53.61;158075.75;4981878;28;20504;-82
2023/10/03 11:02:19;;;;;;;5.90;5.30;;;;;;;26.01;53.72;158064.00;4983156;28;20454;-82
2023/10/03 11:04:53;;;;;;;6.57;5.87;;;;;;;26.07;52.93;158078.41;4984539;28;20519;-82
2023/10/03 11:07:21;;;;;;;5.80;5.20;;;;;;;26.13;52.91;158092.84;4979149;28;20457;-82
2023/10/03 11:09:48;;;;;;;5.90;5.30;;;;;;;26.15;52.83;158099.41;4962478;28;20564;-82
2023/10/03 11:12:23;;;;;;;6.00;5.40;;;;;;;26.22;52.40;158116.38;4977791;28;20489;-82
2023/10/03 11:14:52;;;;;;;5.87;5.37;;;;;;;26.23;52.42;158120.34;4978039;28;20821;-82
2023/10/03 11:17:19;;;;;;;5.77;5.10;;;;;;;26.25;52.72;158125.56;4978502;28;20458;-82
2023/10/03 11:19:46;;;;;;;6.37;5.57;;;;;;;26.33;53.00;158146.53;4979730;28;20454;-82
2023/10/03 11:22:13;;;;;;;6.47;5.50;;;;;;;26.33;53.04;158146.53;4980860;28;20458;-82
2023/10/03 11:24:40;;;;;;;6.87;6.17;;;;;;;26.40;52.75;158164.84;4980678;28;20454;-82
2023/10/03 11:27:07;;;;;;;5.70;5.20;;;;;;;26.47;52.88;158183.22;4976941;28;20469;-82
2023/10/03 11:29:38;;;;;;;6.27;5.67;;;;;;;26.51;52.90;158193.66;4978406;28;20454;-82
2023/10/03 11:32:18;;;;;;;5.83;5.33;;;;;;;26.55;52.73;158204.19;4990411;28;20591;-82
2023/10/03 11:34:45;;;;;;;8.23;6.40;;;;;;;26.59;52.34;158213.31;4998107;28;20998;-82